Time;durP1;ratioP1;P1;durP2;ratioP2;P2;SDS_P1;SDS_P2;PMS_P1;PMS_P2;Temp;Humidity;BMP_temperature;BMP_pressure;BME280_temperature;BME280_humidity;BME280_pressure;Samples;Min_cycle;Max_cycle;Signal;HPM_P1;HPM_P2
2022/03/11 00:02:04;;;;;;;16.98;10.60;;;1.40;94.70;;;;;;4990792;28;20389;-82
2022/03/11 00:04:30;;;;;;;14.43;10.63;;;1.30;94.70;;;;;;4992804;28;20385;-83
2022/03/11 00:06:55;;;;;;;14.50;10.77;;;1.20;94.90;;;;;;5013845;28;20413;-83
2022/03/11 00:09:22;;;;;;;15.83;10.87;;;1.20;95.00;;;;;;4992205;28;20882;-83
2022/03/11 00:11:48;;;;;;;15.52;10.45;;;1.10;95.10;;;;;;4991861;28;20373;-83
2022/03/11 00:14:13;;;;;;;15.55;10.55;;;1.10;95.30;;;;;;4990351;28;20381;-82
2022/03/11 00:16:39;;;;;;;18.10;12.20;;;1.00;95.20;;;;;;4991892;28;20980;-83
2022/03/11 00:19:06;;;;;;;14.03;10.60;;;0.90;95.30;;;;;;4991104;28;20424;-83
2022/03/11 00:21:33;;;;;;;16.00;11.20;;;1.00;95.20;;;;;;5006880;28;20401;-83
2022/03/11 00:24:00;;;;;;;13.80;9.75;;;1.00;95.50;;;;;;4990109;28;21346;-84
2022/03/11 00:26:26;;;;;;;14.18;10.35;;;1.00;95.30;;;;;;4989705;28;20415;-83
2022/03/11 00:28:51;;;;;;;15.38;10.77;;;0.90;95.30;;;;;;4991083;28;20480;-83
2022/03/11 00:31:17;;;;;;;13.32;10.35;;;0.90;95.20;;;;;;4994999;28;20492;-82
2022/03/11 00:33:43;;;;;;;14.00;10.00;;;0.90;95.30;;;;;;5008201;28;20450;-82
2022/03/11 00:36:09;;;;;;;14.10;10.68;;;1.40;95.40;;;;;;5010346;28;20363;-83
2022/03/11 00:38:35;;;;;;;15.57;11.00;;;0.60;95.20;;;;;;5010222;28;20531;-82
2022/03/11 00:41:01;;;;;;;13.55;9.88;;;0.90;95.20;;;;;;4994269;28;20383;-83
2022/03/11 00:43:27;;;;;;;13.70;9.90;;;1.00;95.10;;;;;;5000231;28;21059;-83
2022/03/11 00:45:54;;;;;;;14.10;10.18;;;0.90;95.10;;;;;;4991001;28;21014;-83
2022/03/11 00:48:20;;;;;;;14.45;10.43;;;1.00;95.10;;;;;;4992449;28;20373;-81
2022/03/11 00:50:47;;;;;;;16.67;9.70;;;0.90;94.90;;;;;;5023320;28;20388;-83
2022/03/11 00:53:13;;;;;;;14.38;9.98;;;1.00;95.00;;;;;;4999083;28;20458;-82
2022/03/11 00:55:39;;;;;;;12.48;9.15;;;0.90;95.00;;;;;;5012076;28;20379;-82
2022/03/11 00:58:06;;;;;;;11.38;9.70;;;1.00;94.80;;;;;;5011166;28;20403;-83
2022/03/11 01:00:32;;;;;;;13.85;10.13;;;0.90;94.80;;;;;;5009332;28;20413;-81
2022/03/11 01:02:59;;;;;;;15.30;10.30;;;1.00;94.60;;;;;;5009191;28;20424;-83
2022/03/11 01:05:25;;;;;;;14.40;10.53;;;1.00;94.70;;;;;;5002406;28;20381;-83
2022/03/11 01:07:51;;;;;;;14.40;10.52;;;1.00;94.90;;;;;;4991678;28;20404;-82
2022/03/11 01:10:18;;;;;;;15.00;9.95;;;0.90;94.80;;;;;;5001547;28;20505;-83
2022/03/11 01:12:43;;;;;;;14.93;10.60;;;1.20;95.00;;;;;;5010443;28;20466;-83
2022/03/11 01:15:10;;;;;;;13.27;10.25;;;0.80;95.10;;;;;;5008487;28;20470;-83
2022/03/11 01:17:36;;;;;;;14.05;10.20;;;0.80;95.10;;;;;;5010976;28;20398;-82
2022/03/11 01:20:03;;;;;;;12.70;10.23;;;0.80;95.00;;;;;;5008907;28;20395;-83
2022/03/11 01:22:30;;;;;;;15.52;10.30;;;0.70;95.10;;;;;;5010871;28;20876;-84
2022/03/11 01:24:56;;;;;;;16.55;10.98;;;0.70;95.10;;;;;;5010993;28;20772;-81
2022/03/11 01:27:22;;;;;;;14.63;10.77;;;0.70;95.20;;;;;;5010832;28;20395;-82
2022/03/11 01:29:47;;;;;;;16.25;10.43;;;0.70;95.10;;;;;;5010423;28;20904;-82
2022/03/11 01:32:13;;;;;;;12.93;9.82;;;0.70;95.10;;;;;;4994671;28;20418;-82
2022/03/11 01:34:38;;;;;;;15.93;10.80;;;0.70;95.00;;;;;;5010801;28;20856;-83
2022/03/11 01:37:04;;;;;;;14.30;10.57;;;0.60;95.00;;;;;;5008691;28;20383;-83
2022/03/11 01:39:30;;;;;;;14.27;10.33;;;0.60;95.10;;;;;;4994685;28;20435;-82
2022/03/11 01:41:56;;;;;;;17.00;10.77;;;0.60;94.90;;;;;;4989512;28;20397;-82
2022/03/11 01:44:25;;;;;;;14.32;10.32;;;0.50;95.00;;;;;;4991229;28;20396;-82
2022/03/11 01:46:51;;;;;;;15.25;10.02;;;0.50;95.00;;;;;;4990944;28;20456;-82
2022/03/11 01:49:22;;;;;;;16.27;10.65;;;0.50;95.00;;;;;;5003306;28;20394;-83
2022/03/11 01:51:48;;;;;;;14.82;10.65;;;0.50;95.20;;;;;;5009119;28;20389;-83
2022/03/11 01:54:14;;;;;;;16.52;10.88;;;0.50;95.10;;;;;;5010367;28;20820;-82
2022/03/11 01:56:40;;;;;;;14.80;10.93;;;0.50;95.00;;;;;;5010755;28;20780;-82
2022/03/11 01:59:07;;;;;;;14.40;10.07;;;0.50;94.80;;;;;;5009794;28;20375;-83
2022/03/11 02:01:33;;;;;;;15.60;10.65;;;0.60;94.90;;;;;;5008566;28;20443;-83
2022/03/11 02:03:59;;;;;;;15.68;10.77;;;0.70;94.80;;;;;;5008715;28;20414;-83
2022/03/11 02:06:26;;;;;;;13.77;10.43;;;0.50;94.90;;;;;;5009763;28;20804;-83
2022/03/11 02:08:53;;;;;;;14.40;10.37;;;0.50;95.10;;;;;;5011652;28;20390;-83
2022/03/11 02:11:19;;;;;;;16.00;10.90;;;0.50;94.90;;;;;;5010810;28;20383;-80
2022/03/11 02:13:56;;;;;;;19.35;11.10;;;0.50;94.90;;;;;;5011977;28;20406;-84
2022/03/11 02:16:28;;;;;;;19.88;11.13;;;0.40;94.90;;;;;;5002596;28;20440;-83
2022/03/11 02:18:57;;;;;;;16.00;11.27;;;0.40;94.90;;;;;;4994143;28;20917;-83
2022/03/11 02:21:23;;;;;;;14.63;10.85;;;0.40;94.90;;;;;;4993852;28;20451;-83
2022/03/11 02:23:51;;;;;;;14.13;10.18;;;0.40;94.90;;;;;;4994893;28;20381;-82
2022/03/11 02:26:19;;;;;;;14.25;10.77;;;0.40;94.80;;;;;;5000982;28;20505;-82
2022/03/11 02:28:45;;;;;;;15.85;11.40;;;0.40;95.00;;;;;;5013776;28;20391;-81
2022/03/11 02:31:11;;;;;;;14.25;10.63;;;0.30;95.10;;;;;;5012036;28;20391;-81
2022/03/11 02:33:38;;;;;;;17.17;11.48;;;0.30;95.20;;;;;;5012353;28;20387;-84
2022/03/11 02:36:04;;;;;;;17.63;11.38;;;0.30;95.10;;;;;;5002036;28;20404;-84
2022/03/11 02:38:30;;;;;;;17.30;11.63;;;0.30;95.10;;;;;;4993174;28;20392;-83
2022/03/11 02:40:56;;;;;;;14.55;10.85;;;0.30;95.10;;;;;;4993576;28;20431;-82
2022/03/11 02:43:23;;;;;;;13.13;10.50;;;0.20;95.30;;;;;;4994276;28;20879;-82
2022/03/11 02:45:50;;;;;;;17.05;11.43;;;0.20;95.20;;;;;;5003243;28;20391;-81
2022/03/11 02:48:15;;;;;;;15.68;11.15;;;0.20;95.20;;;;;;5015389;28;20976;-82
2022/03/11 02:50:43;;;;;;;16.73;11.73;;;0.20;95.20;;;;;;5001569;28;20395;-83
2022/03/11 02:53:09;;;;;;;17.80;12.07;;;0.20;95.50;;;;;;5005987;28;20449;-83
2022/03/11 02:55:34;;;;;;;16.02;11.27;;;0.10;95.30;;;;;;5007509;28;20388;-82
2022/03/11 02:58:03;;;;;;;17.33;11.75;;;0.20;95.30;;;;;;4993061;28;20393;-83
2022/03/11 03:00:30;;;;;;;14.73;11.55;;;0.20;95.30;;;;;;4996305;28;20453;-82
2022/03/11 03:02:56;;;;;;;15.95;11.65;;;0.20;95.40;;;;;;5013289;28;20478;-83
2022/03/11 03:05:22;;;;;;;17.17;12.35;;;0.10;95.50;;;;;;5011592;28;20383;-83
2022/03/11 03:07:47;;;;;;;16.13;11.87;;;0.10;95.60;;;;;;5008865;28;20405;-82
2022/03/11 03:10:13;;;;;;;16.30;11.88;;;0.10;95.60;;;;;;4993694;28;20381;-82
2022/03/11 03:12:40;;;;;;;18.15;11.98;;;0.00;95.60;;;;;;4993870;28;20439;-82
2022/03/11 03:15:07;;;;;;;15.52;11.85;;;0.00;95.60;;;;;;4991683;28;20405;-83
2022/03/11 03:17:33;;;;;;;15.30;12.05;;;0.00;95.60;;;;;;4993229;28;20420;-82
2022/03/11 03:19:58;;;;;;;20.20;12.53;;;0.00;95.80;;;;;;5012039;28;20490;-83
2022/03/11 03:22:24;;;;;;;14.63;11.27;;;-0.10;95.90;;;;;;5011370;28;20437;-83
2022/03/11 03:24:50;;;;;;;16.63;11.97;;;-0.10;95.90;;;;;;5010089;28;20737;-83
2022/03/11 03:27:16;;;;;;;15.07;11.33;;;-0.20;96.00;;;;;;5012283;28;20490;-82
2022/03/11 03:29:42;;;;;;;17.00;12.30;;;-0.20;96.00;;;;;;5011710;28;20407;-83
2022/03/11 03:32:08;;;;;;;16.92;12.32;;;-0.20;96.10;;;;;;5010730;28;20410;-84
2022/03/11 03:34:36;;;;;;;17.52;12.15;;;-0.20;96.00;;;;;;4993301;28;20948;-82
2022/03/11 03:37:06;;;;;;;16.90;12.10;;;-0.30;96.10;;;;;;5023993;28;20901;-82
2022/03/11 03:39:33;;;;;;;17.63;12.23;;;-0.30;96.30;;;;;;4991630;28;20399;-83
2022/03/11 03:41:58;;;;;;;16.50;12.63;;;-0.30;96.30;;;;;;5024482;28;20388;-83
2022/03/11 03:44:25;;;;;;;16.75;12.45;;;-0.30;96.10;;;;;;5007614;28;20399;-83
2022/03/11 03:46:51;;;;;;;17.40;12.23;;;-0.30;96.20;;;;;;5012902;28;20415;-82
2022/03/11 03:49:18;;;;;;;17.15;12.52;;;-0.20;96.30;;;;;;5010847;28;20402;-82
2022/03/11 03:51:44;;;;;;;15.00;11.98;;;-0.30;96.30;;;;;;4978173;28;20391;-83
2022/03/11 03:54:10;;;;;;;19.53;12.40;;;-0.30;96.40;;;;;;5001417;28;20465;-83
2022/03/11 03:56:36;;;;;;;18.80;12.57;;;-0.40;96.50;;;;;;5009605;28;20391;-82
2022/03/11 03:59:06;;;;;;;19.23;13.00;;;-0.40;96.50;;;;;;5012046;28;20375;-83
2022/03/11 04:01:42;;;;;;;18.13;13.00;;;-0.40;96.40;;;;;;4994312;28;20410;-84
2022/03/11 04:04:09;;;;;;;18.05;12.95;;;-0.40;96.40;;;;;;4997830;28;20408;-84
2022/03/11 04:06:36;;;;;;;17.08;13.40;;;-0.40;96.40;;;;;;4990445;28;20413;-82
2022/03/11 04:09:05;;;;;;;17.23;12.82;;;-0.40;96.40;;;;;;4991924;28;20381;-83
2022/03/11 04:11:31;;;;;;;18.13;12.88;;;-0.30;96.50;;;;;;4991141;28;20381;-82
2022/03/11 04:13:58;;;;;;;18.83;13.70;;;-0.50;96.40;;;;;;5001873;28;20748;-82
2022/03/11 04:16:24;;;;;;;17.90;12.48;;;-0.50;96.60;;;;;;5009627;28;20509;-84
2022/03/11 04:18:50;;;;;;;17.50;13.15;;;-0.50;96.70;;;;;;4998112;28;20419;-83
2022/03/11 04:21:17;;;;;;;18.95;13.00;;;-0.60;96.70;;;;;;4989937;28;20415;-83
2022/03/11 04:23:45;;;;;;;19.90;13.48;;;-0.70;96.90;;;;;;4989958;28;20483;-83
2022/03/11 04:26:11;;;;;;;32.30;14.73;;;-0.60;97.00;;;;;;4991597;28;20397;-83
2022/03/11 04:28:38;;;;;;;19.15;13.90;;;-0.70;96.90;;;;;;4989439;28;20420;-83
2022/03/11 04:31:04;;;;;;;17.23;12.57;;;-0.70;97.00;;;;;;5022962;28;20417;-82
2022/03/11 04:33:34;;;;;;;18.70;13.02;;;-0.70;97.10;;;;;;4991225;28;20401;-83
2022/03/11 04:36:00;;;;;;;18.20;13.73;;;-0.70;97.10;;;;;;5022569;28;20407;-83
2022/03/11 04:38:25;;;;;;;19.55;13.27;;;-0.80;97.00;;;;;;4990782;28;20882;-82
2022/03/11 04:40:53;;;;;;;18.43;12.97;;;-0.70;97.00;;;;;;4991129;28;20399;-84
2022/03/11 04:43:19;;;;;;;18.40;13.20;;;-0.70;97.20;;;;;;5005419;28;20409;-83
2022/03/11 04:45:45;;;;;;;20.38;13.85;;;-0.80;97.00;;;;;;4990495;28;20381;-82
2022/03/11 04:48:11;;;;;;;16.40;12.98;;;-0.80;97.10;;;;;;4989346;28;20907;-84
2022/03/11 04:50:37;;;;;;;29.63;13.77;;;-0.80;96.90;;;;;;5005753;28;20385;-83
2022/03/11 04:53:03;;;;;;;17.70;12.93;;;-0.80;97.00;;;;;;4992993;28;20401;-83
2022/03/11 04:55:29;;;;;;;17.93;12.93;;;-0.80;96.80;;;;;;5009456;28;20422;-83
2022/03/11 04:57:55;;;;;;;18.98;13.85;;;-0.80;96.90;;;;;;5009312;28;20437;-83
2022/03/11 05:00:20;;;;;;;25.40;13.82;;;-0.80;96.90;;;;;;5009480;28;20909;-84
2022/03/11 05:02:46;;;;;;;17.00;12.60;;;-0.80;96.90;;;;;;5008194;28;20379;-83
2022/03/11 05:05:13;;;;;;;18.48;13.63;;;-0.70;96.70;;;;;;4990632;28;20380;-84
2022/03/11 05:10:34;;;;;;;19.52;14.43;;;-0.80;96.90;;;;;;5087039;28;20372;-82
2022/03/11 05:13:00;;;;;;;24.23;15.10;;;-0.90;96.90;;;;;;5090365;28;20376;-82
2022/03/11 05:15:26;;;;;;;28.17;18.77;;;-0.90;96.90;;;;;;5106107;28;20376;-81
2022/03/11 05:17:52;;;;;;;27.50;19.47;;;-0.90;97.00;;;;;;5105370;27;20563;-82
2022/03/11 05:20:18;;;;;;;22.67;15.63;;;-0.90;96.90;;;;;;5107669;28;20455;-82
2022/03/11 05:22:45;;;;;;;49.47;32.67;;;-0.90;96.70;;;;;;5101045;28;20913;-83
2022/03/11 05:25:11;;;;;;;33.55;22.23;;;-0.80;96.70;;;;;;5085531;28;20385;-82
2022/03/11 05:27:37;;;;;;;28.35;19.50;;;-0.80;96.70;;;;;;5089573;28;20383;-82
2022/03/11 05:30:08;;;;;;;47.55;30.85;;;-0.90;96.90;;;;;;5105512;28;20442;-82
2022/03/11 05:32:40;;;;;;;126.45;75.35;;;-0.90;97.00;;;;;;5101809;28;20393;-83
2022/03/11 05:35:06;;;;;;;170.90;101.50;;;-0.90;97.10;;;;;;5085285;27;20381;-82
2022/03/11 05:37:31;;;;;;;115.03;67.78;;;-1.00;97.10;;;;;;5084867;28;20452;-83
2022/03/11 05:39:57;;;;;;;74.80;44.20;;;-1.10;97.50;;;;;;5085080;28;20889;-82
2022/03/11 05:42:22;;;;;;;130.60;76.43;;;-1.10;97.30;;;;;;5087542;28;20376;-82
2022/03/11 05:44:48;;;;;;;63.60;37.70;;;-1.10;97.30;;;;;;5105476;28;20737;-82
2022/03/11 05:47:15;;;;;;;171.80;89.63;;;-0.80;97.40;;;;;;5106205;28;20403;-82
2022/03/11 05:49:42;;;;;;;97.88;55.08;;;-1.50;97.30;;;;;;5105109;27;20916;-82
2022/03/11 05:52:08;;;;;;;128.40;68.85;;;-1.20;97.40;;;;;;5086681;28;20409;-83
2022/03/11 05:54:34;;;;;;;77.38;48.85;;;-1.10;97.30;;;;;;5084529;28;20786;-82
2022/03/11 05:57:01;;;;;;;160.00;99.70;;;-1.10;97.20;;;;;;5100121;28;20392;-82
2022/03/11 05:59:29;;;;;;;69.60;44.07;;;-1.20;97.30;;;;;;5095095;28;20437;-83
2022/03/11 06:01:55;;;;;;;72.90;44.88;;;-1.10;97.20;;;;;;5084900;28;20414;-82
2022/03/11 06:04:21;;;;;;;51.63;33.17;;;-1.00;97.10;;;;;;5083443;28;20406;-82
2022/03/11 06:06:47;;;;;;;120.40;69.50;;;-1.10;97.10;;;;;;5084732;28;20874;-83
2022/03/11 06:09:13;;;;;;;134.30;76.00;;;-1.00;97.10;;;;;;5084573;28;20652;-82
2022/03/11 06:11:39;;;;;;;140.18;79.75;;;-1.00;97.10;;;;;;5084592;28;20370;-82
2022/03/11 06:14:06;;;;;;;97.47;57.97;;;-1.00;97.10;;;;;;5085859;28;20511;-81
2022/03/11 06:16:32;;;;;;;132.75;77.03;;;-1.00;97.10;;;;;;5084073;28;20389;-82
2022/03/11 06:18:57;;;;;;;77.35;45.08;;;-1.00;97.00;;;;;;5083772;28;20393;-83
2022/03/11 06:21:24;;;;;;;123.43;75.43;;;-0.80;96.90;;;;;;5073309;28;20887;-83
2022/03/11 06:23:52;;;;;;;78.07;53.15;;;-0.80;96.80;;;;;;5071916;28;20382;-82
2022/03/11 06:26:18;;;;;;;63.67;37.27;;;-0.60;96.30;;;;;;5070990;28;20414;-82
2022/03/11 06:28:44;;;;;;;33.45;24.83;;;-0.50;96.20;;;;;;5071666;28;20437;-82
2022/03/11 06:31:11;;;;;;;48.45;36.88;;;-0.40;96.10;;;;;;5072197;28;20378;-82
2022/03/11 06:33:37;;;;;;;38.58;22.98;;;-0.30;96.00;;;;;;5071030;28;20386;-82
2022/03/11 06:36:04;;;;;;;31.35;23.77;;;-0.20;95.60;;;;;;5069771;28;20440;-83
2022/03/11 06:38:30;;;;;;;21.77;17.50;;;0.00;95.70;;;;;;5071215;28;20377;-84
2022/03/11 06:40:57;;;;;;;42.88;34.40;;;0.10;95.50;;;;;;5071695;28;20443;-83
2022/03/11 06:43:23;;;;;;;27.60;23.40;;;0.20;95.50;;;;;;5070509;28;20442;-83
2022/03/11 06:45:49;;;;;;;24.30;21.33;;;0.00;95.00;;;;;;5072024;28;20378;-82
2022/03/11 06:48:18;;;;;;;21.92;16.83;;;0.40;95.00;;;;;;5072097;28;20478;-81
2022/03/11 06:50:44;;;;;;;21.80;17.27;;;0.30;94.80;;;;;;5072024;28;20464;-83
2022/03/11 06:53:10;;;;;;;26.00;19.70;;;0.50;94.70;;;;;;5070554;28;20377;-83
2022/03/11 06:55:36;;;;;;;22.83;18.57;;;1.00;94.70;;;;;;5070743;28;20371;-84
2022/03/11 06:58:01;;;;;;;23.90;16.17;;;0.70;94.60;;;;;;5072968;28;20787;-82
2022/03/11 07:00:27;;;;;;;19.17;14.57;;;0.70;94.20;;;;;;5071819;28;20423;-82
2022/03/11 07:02:54;;;;;;;27.40;21.20;;;0.70;94.00;;;;;;5071150;28;20469;-83
2022/03/11 07:05:20;;;;;;;18.70;14.48;;;0.90;94.00;;;;;;5054013;28;20454;-83
2022/03/11 07:07:46;;;;;;;17.42;13.00;;;1.00;94.00;;;;;;5070922;28;20378;-83
2022/03/11 07:10:12;;;;;;;18.88;13.30;;;1.10;93.70;;;;;;5071809;28;20447;-83
2022/03/11 07:12:38;;;;;;;34.10;15.07;;;1.10;93.40;;;;;;5070492;28;20732;-82
2022/03/11 07:15:05;;;;;;;19.83;14.20;;;1.10;93.50;;;;;;5070685;28;20442;-83
2022/03/11 07:17:32;;;;;;;27.40;14.43;;;1.20;93.60;;;;;;5071998;28;20381;-82
2022/03/11 07:19:57;;;;;;;17.77;13.13;;;1.30;93.10;;;;;;5069643;28;20875;-82
2022/03/11 07:22:23;;;;;;;25.13;14.03;;;1.40;93.20;;;;;;5071547;28;20370;-82
2022/03/11 07:24:49;;;;;;;21.55;13.68;;;1.40;92.90;;;;;;5084644;28;20395;-82
2022/03/11 07:27:15;;;;;;;21.50;12.93;;;1.60;92.80;;;;;;5071206;28;20374;-84
2022/03/11 07:29:41;;;;;;;20.67;13.38;;;1.60;92.80;;;;;;5070321;28;20410;-83
2022/03/11 07:32:08;;;;;;;99.85;21.15;;;1.70;92.50;;;;;;5069817;28;20374;-83
2022/03/11 07:34:34;;;;;;;20.20;13.50;;;1.80;92.40;;;;;;5071483;27;20390;-82
2022/03/11 07:37:01;;;;;;;21.02;13.52;;;1.80;91.90;;;;;;5069890;28;20473;-83
2022/03/11 07:39:28;;;;;;;22.20;14.18;;;1.80;92.20;;;;;;5070255;28;20763;-82
2022/03/11 07:41:53;;;;;;;19.77;13.23;;;1.90;91.80;;;;;;5071238;28;20401;-84
2022/03/11 07:44:20;;;;;;;21.10;13.45;;;2.00;94.60;;;;;;5075437;28;20830;-82
2022/03/11 07:46:46;;;;;;;22.17;13.18;;;1.70;95.60;;;;;;5071845;28;20381;-83
2022/03/11 07:49:12;;;;;;;18.80;12.80;;;1.90;95.20;;;;;;5072442;28;20390;-83
2022/03/11 07:51:38;;;;;;;161.07;26.00;;;1.90;96.00;;;;;;5070955;28;20439;-84
2022/03/11 07:54:04;;;;;;;19.87;13.10;;;2.10;96.20;;;;;;5079903;28;20380;-82
2022/03/11 07:56:30;;;;;;;21.33;13.23;;;1.90;96.20;;;;;;5089724;28;20475;-85
2022/03/11 07:58:59;;;;;;;19.65;13.75;;;2.40;96.30;;;;;;5077878;28;20416;-83
2022/03/11 08:01:25;;;;;;;32.60;14.15;;;2.40;95.70;;;;;;5081832;27;20393;-84
2022/03/11 08:03:52;;;;;;;24.30;13.73;;;2.30;95.90;;;;;;5072981;28;20390;-82
2022/03/11 08:06:17;;;;;;;26.13;13.75;;;2.90;96.80;;;;;;5071326;28;20429;-83
2022/03/11 08:08:43;;;;;;;24.20;13.15;;;2.60;96.20;;;;;;5066233;28;20449;-83
2022/03/11 08:11:10;;;;;;;18.65;13.02;;;2.70;96.70;;;;;;5073641;28;20380;-83
2022/03/11 08:13:36;;;;;;;23.15;13.40;;;2.70;89.90;;;;;;5090392;28;20384;-82
2022/03/11 08:16:02;;;;;;;21.65;12.80;;;2.70;89.50;;;;;;5089704;28;20983;-83
2022/03/11 08:18:29;;;;;;;20.67;12.70;;;2.70;88.70;;;;;;5091060;28;20369;-82
2022/03/11 08:20:54;;;;;;;20.05;12.70;;;2.80;89.00;;;;;;5087296;28;20400;-82
2022/03/11 08:23:20;;;;;;;23.60;13.38;;;4.90;91.20;;;;;;5071241;28;20397;-82
2022/03/11 08:25:47;;;;;;;16.43;12.87;;;;;;;;;;5069628;28;20378;-83
2022/03/11 08:28:13;;;;;;;24.00;13.32;;;3.10;87.10;;;;;;5071040;28;20378;-83
2022/03/11 08:30:40;;;;;;;23.63;13.23;;;3.10;86.90;;;;;;5069534;28;20375;-83
2022/03/11 08:33:07;;;;;;;18.73;12.60;;;3.00;86.50;;;;;;5090051;28;20493;-82
2022/03/11 08:35:33;;;;;;;19.25;12.25;;;3.10;85.60;;;;;;5091760;27;20751;-83
2022/03/11 08:37:59;;;;;;;20.48;12.82;;;3.30;85.50;;;;;;5086090;28;20382;-82
2022/03/11 08:40:26;;;;;;;20.90;13.33;;;;;;;;;;5079591;28;20467;-82
2022/03/11 08:42:52;;;;;;;16.85;12.32;;;3.60;86.30;;;;;;5070589;28;20370;-83
2022/03/11 08:45:21;;;;;;;17.75;12.57;;;3.80;83.50;;;;;;5070401;28;20373;-84
2022/03/11 08:47:50;;;;;;;18.58;12.77;;;3.70;82.90;;;;;;5070676;28;20388;-82
2022/03/11 08:50:17;;;;;;;18.90;12.55;;;3.70;82.20;;;;;;5070048;28;20891;-83
2022/03/11 08:52:43;;;;;;;19.20;12.63;;;3.60;81.70;;;;;;5069378;28;20446;-82
2022/03/11 08:55:10;;;;;;;17.30;12.70;;;3.50;81.90;;;;;;5089378;28;20389;-82
2022/03/11 08:57:35;;;;;;;19.00;12.70;;;3.70;82.00;;;;;;5088760;28;20380;-84
2022/03/11 09:00:06;;;;;;;26.83;15.48;;;3.80;81.50;;;;;;5088409;28;20896;-83
2022/03/11 09:02:37;;;;;;;45.67;27.55;;;;;;;;;;5087186;28;20391;-82
2022/03/11 09:05:03;;;;;;;47.95;31.85;;;4.00;80.40;;;;;;5075639;27;20379;-84
2022/03/11 09:07:29;;;;;;;20.17;13.80;;;4.10;81.00;;;;;;5068984;28;20400;-84
2022/03/11 09:09:55;;;;;;;76.20;31.17;;;4.00;79.60;;;;;;5069351;28;21150;-83
2022/03/11 09:12:21;;;;;;;34.35;22.35;;;4.00;79.70;;;;;;5068488;28;20385;-82
2022/03/11 09:14:47;;;;;;;20.52;13.57;;;4.00;80.20;;;;;;5070687;28;20479;-84
2022/03/11 09:17:13;;;;;;;15.88;12.43;;;4.10;80.30;;;;;;5069452;28;20378;-84
2022/03/11 09:19:42;;;;;;;18.27;12.32;;;;;;;;;;5100479;28;20381;-83
2022/03/11 09:22:08;;;;;;;34.95;14.45;;;;;;;;;;5084085;28;20427;-82
2022/03/11 09:24:33;;;;;;;47.75;14.55;;;4.90;79.00;;;;;;5089330;28;20380;-83
2022/03/11 09:26:59;;;;;;;137.88;22.65;;;4.80;77.30;;;;;;5089339;28;20387;-83
2022/03/11 09:29:28;;;;;;;18.70;12.37;;;4.70;77.90;;;;;;5072393;28;20794;-83
2022/03/11 09:31:56;;;;;;;19.98;12.65;;;4.90;77.00;;;;;;5068628;28;20386;-83
2022/03/11 09:34:23;;;;;;;29.80;13.10;;;4.80;77.70;;;;;;5068847;28;20443;-83
2022/03/11 09:36:48;;;;;;;18.65;12.40;;;4.80;77.30;;;;;;5069158;28;20410;-84
2022/03/11 09:39:14;;;;;;;16.20;11.40;;;4.90;77.20;;;;;;5070234;28;20374;-84
2022/03/11 09:41:40;;;;;;;24.67;12.23;;;5.20;77.80;;;;;;5067172;28;20855;-84
2022/03/11 09:44:06;;;;;;;21.47;11.77;;;5.10;75.20;;;;;;5069632;28;20495;-84
2022/03/11 09:46:33;;;;;;;158.83;23.20;;;5.10;75.10;;;;;;5068719;28;20386;-83
2022/03/11 09:49:00;;;;;;;22.80;11.52;;;5.20;75.60;;;;;;5071411;28;20401;-83
2022/03/11 09:51:26;;;;;;;17.00;12.13;;;5.30;75.20;;;;;;5068896;28;20903;-84
2022/03/11 09:53:53;;;;;;;19.25;11.25;;;5.40;74.40;;;;;;5068158;28;20377;-84
2022/03/11 09:56:20;;;;;;;17.95;11.50;;;5.50;74.50;;;;;;5068624;28;20393;-85
2022/03/11 09:58:46;;;;;;;17.17;11.65;;;5.60;75.30;;;;;;5074648;28;20401;-83
2022/03/11 10:01:12;;;;;;;34.53;13.80;;;5.60;73.00;;;;;;5069766;28;20745;-84
2022/03/11 10:03:37;;;;;;;17.87;12.00;;;5.50;73.00;;;;;;5092267;28;20471;-82
2022/03/11 10:06:03;;;;;;;15.95;11.60;;;5.60;73.40;;;;;;5092733;27;20368;-84
2022/03/11 10:08:33;;;;;;;39.60;12.93;;;5.70;73.40;;;;;;5091282;28;20389;-85
2022/03/11 10:11:19;;;;;;;20.87;11.60;;;5.70;74.00;;;;;;5088193;28;20405;-84
2022/03/11 10:13:45;;;;;;;14.68;11.32;;;5.80;71.40;;;;;;5073351;28;20377;-84
2022/03/11 10:16:17;;;;;;;18.73;11.65;;;5.80;71.60;;;;;;5071492;28;20386;-83
2022/03/11 10:18:57;;;;;;;15.93;11.10;;;5.70;70.80;;;;;;5071656;28;20382;-83
2022/03/11 10:21:34;;;;;;;16.00;12.02;;;5.70;71.20;;;;;;5077340;28;20548;-83
2022/03/11 10:24:01;;;;;;;15.32;11.82;;;5.70;72.20;;;;;;5092127;28;20395;-84
2022/03/11 10:26:43;;;;;;;16.27;11.65;;;5.50;72.10;;;;;;5092769;28;20377;-84
2022/03/11 10:29:13;;;;;;;16.60;10.90;;;5.60;71.90;;;;;;5069665;28;20456;-84
2022/03/11 10:31:43;;;;;;;15.02;10.95;;;5.60;71.10;;;;;;5076207;28;20750;-83
2022/03/11 10:34:29;;;;;;;16.02;10.43;;;5.60;72.10;;;;;;5066934;28;20374;-83
2022/03/11 10:36:59;;;;;;;17.63;11.73;;;5.70;71.60;;;;;;5071333;28;20404;-82
2022/03/11 10:39:29;;;;;;;15.50;12.38;;;5.70;70.00;;;;;;5071890;28;20370;-85
2022/03/11 10:41:58;;;;;;;16.30;11.30;;;5.70;72.30;;;;;;5071100;28;20481;-83
2022/03/11 10:44:29;;;;;;;18.13;11.95;;;5.80;72.00;;;;;;5073117;28;20382;-82
2022/03/11 10:46:55;;;;;;;14.82;10.63;;;5.80;71.00;;;;;;5073672;28;20453;-85
2022/03/11 10:49:31;;;;;;;15.20;11.23;;;5.90;70.80;;;;;;5071830;28;20766;-82
2022/03/11 10:51:58;;;;;;;18.30;10.70;;;6.10;70.30;;;;;;5070210;28;20398;-84
2022/03/11 10:54:26;;;;;;;18.45;12.05;;;6.30;68.70;;;;;;5071194;28;20432;-83
2022/03/11 10:56:52;;;;;;;70.45;15.10;;;6.20;69.50;;;;;;5072525;28;20378;-83
2022/03/11 10:59:21;;;;;;;18.30;11.98;;;6.20;70.70;;;;;;5072211;28;20817;-83
2022/03/11 11:01:48;;;;;;;17.08;10.82;;;6.30;67.80;;;;;;5071891;28;20381;-86
2022/03/11 11:04:17;;;;;;;20.92;10.88;;;6.30;69.00;;;;;;5070438;28;20378;-82
2022/03/11 11:06:44;;;;;;;14.27;10.02;;;6.40;66.60;;;;;;5071622;28;20492;-81
2022/03/11 11:09:12;;;;;;;23.40;10.38;;;6.40;64.20;;;;;;5070623;28;20413;-84
2022/03/11 11:11:39;;;;;;;17.85;10.50;;;6.50;66.10;;;;;;5070661;28;20374;-85
2022/03/11 11:14:07;;;;;;;17.20;9.77;;;6.50;66.90;;;;;;5053750;28;20375;-84
2022/03/11 11:16:55;;;;;;;16.85;10.70;;;6.60;65.70;;;;;;5070465;28;20903;-83
2022/03/11 11:19:24;;;;;;;20.95;11.10;;;6.80;66.20;;;;;;5070177;28;20390;-84
2022/03/11 11:21:51;;;;;;;16.30;11.20;;;6.70;65.80;;;;;;5069761;28;20405;-85
2022/03/11 11:24:21;;;;;;;15.23;10.70;;;;;;;;;;5070568;28;20805;-84
2022/03/11 11:26:54;;;;;;;30.10;12.43;;;6.70;65.30;;;;;;5072318;28;20393;-84
2022/03/11 11:29:26;;;;;;;17.23;11.00;;;6.60;66.30;;;;;;5070734;28;20457;-84
2022/03/11 11:31:53;;;;;;;17.90;11.53;;;6.60;68.00;;;;;;5069536;28;20421;-83
2022/03/11 11:34:26;;;;;;;19.07;11.13;;;6.80;67.00;;;;;;5085736;28;20478;-86
2022/03/11 11:36:52;;;;;;;17.27;10.15;;;7.00;66.50;;;;;;5073449;27;20422;-85
2022/03/11 11:39:18;;;;;;;27.85;11.13;;;7.00;64.70;;;;;;5070057;28;20386;-85
2022/03/11 11:41:51;;;;;;;21.15;10.48;;;;;;;;;;5076274;28;20398;-84
2022/03/11 11:44:18;;;;;;;16.80;9.80;;;;;;;;;;5062427;28;20373;-84
2022/03/11 11:47:05;;;;;;;13.73;9.50;;;;;;;;;;5080335;28;20427;-83
2022/03/11 11:49:42;;;;;;;19.58;9.88;;;;;;;;;;5059373;28;20427;-84
2022/03/11 11:52:11;;;;;;;13.02;9.23;;;;;;;;;;5083982;28;20404;-83
2022/03/11 11:54:38;;;;;;;20.80;11.70;;;;;;;;;;5089060;28;20783;-83
2022/03/11 11:57:05;;;;;;;16.08;9.52;;;;;;;;;;5072367;28;20383;-84
2022/03/11 11:59:36;;;;;;;15.35;10.15;;;;;;;;;;5070579;28;20875;-83
2022/03/11 12:02:04;;;;;;;19.10;9.98;;;;;;;;;;5076631;28;20444;-83
2022/03/11 12:04:33;;;;;;;49.47;12.60;;;;;;;;;;5069860;28;20763;-84
2022/03/11 12:06:59;;;;;;;14.85;9.68;;;;;;;;;;5068253;28;20421;-83
2022/03/11 12:09:48;;;;;;;13.88;8.98;;;;;;;;;;5071101;28;20398;-82
2022/03/11 12:12:20;;;;;;;14.05;9.40;;;;;;;;;;5069807;28;20382;-84
2022/03/11 12:14:59;;;;;;;24.30;9.23;;;;;;;;;;5072133;28;20409;-83
2022/03/11 12:17:38;;;;;;;12.85;9.02;;;;;;;;;;5071476;28;20740;-85
2022/03/11 12:20:24;;;;;;;17.70;9.15;;;;;;;;;;5070776;28;20875;-84
2022/03/11 12:22:57;;;;;;;11.63;8.52;;;;;;;;;;5069060;28;20426;-83
2022/03/11 12:25:24;;;;;;;14.05;8.57;;;;;;;;;;5069813;28;20382;-84
2022/03/11 12:28:09;;;;;;;15.18;7.90;;;;;;;;;;5070208;28;20377;-84
2022/03/11 12:30:37;;;;;;;21.48;9.25;;;;;;;;;;5071359;28;20394;-84
2022/03/11 12:33:05;;;;;;;31.58;10.35;;;;;;;;;;5069399;28;20414;-84
2022/03/11 12:35:33;;;;;;;14.17;7.97;;;;;;;;;;5070269;28;20428;-87
2022/03/11 12:37:59;;;;;;;11.85;9.07;;;;;;;;;;5069974;28;20398;-84
2022/03/11 12:40:27;;;;;;;11.25;8.40;;;;;;;;;;5070311;28;20881;-83
2022/03/11 12:42:58;;;;;;;33.75;10.68;;;;;;;;;;5068953;28;20394;-83
2022/03/11 12:45:50;;;;;;;20.80;8.38;;;;;;;;;;5071647;28;20373;-84
2022/03/11 12:48:18;;;;;;;16.80;8.43;;;;;;;;;;5068018;28;20390;-84
2022/03/11 12:50:45;;;;;;;14.80;8.77;;;;;;;;;;5071386;28;20406;-84